createdAt,value
2017-06-17T00:01:24.677Z,101566
2017-06-17T00:03:53.943Z,101551
2017-06-17T00:06:22.790Z,101556
2017-06-17T00:08:51.350Z,101563
2017-06-17T00:11:20.022Z,101566
2017-06-17T00:13:48.510Z,101563
2017-06-17T00:16:17.229Z,101561
2017-06-17T00:18:46.512Z,101565
2017-06-17T00:21:15.018Z,101563
2017-06-17T00:23:45.072Z,101564
2017-06-17T00:26:13.595Z,101569
2017-06-17T00:28:42.257Z,101563
2017-06-17T00:31:10.967Z,101563
2017-06-17T00:33:39.472Z,101554
2017-06-17T00:36:08.774Z,101555
2017-06-17T00:38:38.263Z,101559
2017-06-17T00:41:07.725Z,101553
2017-06-17T00:43:36.211Z,101564
2017-06-17T00:46:05.343Z,101557
2017-06-17T00:48:33.823Z,101563
2017-06-17T00:51:02.461Z,101567
2017-06-17T00:53:30.973Z,101560
2017-06-17T00:55:59.498Z,101559
2017-06-17T00:58:28.779Z,101560
2017-06-17T01:00:57.693Z,101561
2017-06-17T01:03:30.221Z,101554
2017-06-17T01:05:58.744Z,101565
2017-06-17T01:08:28.653Z,101563
2017-06-17T01:10:57.900Z,101572
2017-06-17T01:13:26.454Z,101567
2017-06-17T01:15:55.760Z,101553
2017-06-17T01:18:25.056Z,101571
2017-06-17T01:20:54.521Z,101559
2017-06-17T01:23:22.990Z,101569
2017-06-17T01:25:51.489Z,101563
2017-06-17T01:28:19.966Z,101568
2017-06-17T01:30:48.473Z,101559
2017-06-17T01:33:17.437Z,101561
2017-06-17T01:35:45.999Z,101566
2017-06-17T01:38:14.502Z,101562
2017-06-17T01:40:43.514Z,101558
2017-06-17T01:43:12.197Z,101563
2017-06-17T01:45:40.820Z,101555
2017-06-17T01:48:10.287Z,101553
2017-06-17T01:50:38.993Z,101555
2017-06-17T01:53:07.547Z,101559
2017-06-17T01:55:36.158Z,101560
2017-06-17T01:58:06.306Z,101547
2017-06-17T02:00:35.537Z,101557
2017-06-17T02:03:04.080Z,101550
2017-06-17T02:05:33.597Z,101549
2017-06-17T02:08:02.898Z,101549
2017-06-17T02:10:32.180Z,101546
2017-06-17T02:13:00.817Z,101540
2017-06-17T02:15:29.761Z,101543
2017-06-17T02:17:58.464Z,101543
2017-06-17T02:20:29.026Z,101540
2017-06-17T02:22:57.636Z,101549
2017-06-17T02:25:26.111Z,101547
2017-06-17T02:27:54.629Z,101545
2017-06-17T02:30:23.334Z,101547
2017-06-17T02:32:52.568Z,101542
2017-06-17T02:35:21.119Z,101552
2017-06-17T02:37:50.994Z,101549
2017-06-17T02:40:19.662Z,101551
2017-06-17T02:42:48.228Z,101555
2017-06-17T02:45:16.926Z,101550
2017-06-17T02:47:45.382Z,101508
2017-06-17T02:50:13.878Z,101551
2017-06-17T02:52:42.489Z,101558
2017-06-17T02:55:11.443Z,101554
2017-06-17T02:57:40.121Z,101542
2017-06-17T03:00:09.373Z,101565
2017-06-17T03:02:37.897Z,101559
2017-06-17T03:05:07.208Z,101567
2017-06-17T03:07:36.409Z,101561
2017-06-17T03:10:05.530Z,101570
2017-06-17T03:12:34.030Z,101571
2017-06-17T03:15:02.544Z,101571
2017-06-17T03:17:31.206Z,101571
2017-06-17T03:19:59.698Z,101571
2017-06-17T03:22:28.199Z,101569
2017-06-17T03:24:56.683Z,101573
2017-06-17T03:27:25.393Z,101564
2017-06-17T03:29:54.692Z,101567
2017-06-17T03:32:24.564Z,101573
2017-06-17T03:34:53.091Z,101576
2017-06-17T03:37:22.348Z,101575
2017-06-17T03:39:50.874Z,101582
2017-06-17T03:42:20.152Z,101577
2017-06-17T03:44:48.868Z,101580
2017-06-17T03:47:18.135Z,101585
2017-06-17T03:49:46.614Z,101580
2017-06-17T03:52:15.715Z,101592
2017-06-17T03:54:44.433Z,101602
2017-06-17T03:57:13.695Z,101597
2017-06-17T03:59:42.402Z,101599
2017-06-17T04:02:10.905Z,101594
2017-06-17T04:04:39.774Z,101590
2017-06-17T04:07:08.254Z,101602
2017-06-17T04:09:36.759Z,101597
2017-06-17T04:12:06.651Z,101591
2017-06-17T04:14:35.160Z,101596
2017-06-17T04:17:03.773Z,101594
2017-06-17T04:19:32.296Z,101590
2017-06-17T04:22:00.847Z,101587
2017-06-17T04:24:29.358Z,101590
2017-06-17T04:26:58.322Z,101591
2017-06-17T04:29:26.794Z,101603
2017-06-17T04:31:56.150Z,101592
2017-06-17T04:34:24.643Z,101598
2017-06-17T04:36:53.129Z,101592
2017-06-17T04:39:22.439Z,101601
2017-06-17T04:41:51.741Z,101599
2017-06-17T04:44:21.554Z,101602
2017-06-17T04:46:50.119Z,101604
2017-06-17T04:49:19.031Z,101603
2017-06-17T04:51:48.278Z,101596
2017-06-17T04:54:16.790Z,101603
2017-06-17T04:56:45.477Z,101601
2017-06-17T04:59:13.983Z,101599
2017-06-17T05:01:43.226Z,101613
2017-06-17T05:04:12.949Z,101604
2017-06-17T05:06:41.445Z,101606
2017-06-17T05:09:09.961Z,101606
2017-06-17T05:11:39.831Z,101618
2017-06-17T05:14:08.565Z,101631
2017-06-17T05:16:37.818Z,101629
2017-06-17T05:19:06.525Z,101615
2017-06-17T05:21:35.183Z,101616
2017-06-17T05:24:03.731Z,101627
2017-06-17T05:26:32.465Z,101623
2017-06-17T05:29:01.155Z,101628
2017-06-17T05:31:31.053Z,101637
2017-06-17T05:33:59.573Z,101633
2017-06-17T05:36:28.094Z,101628
2017-06-17T05:38:56.665Z,101630
2017-06-17T05:41:25.902Z,101628
2017-06-17T05:43:54.449Z,101636
2017-06-17T05:46:24.323Z,101613
2017-06-17T05:48:53.054Z,101622
2017-06-17T05:51:22.547Z,101625
2017-06-17T05:53:51.028Z,101623
2017-06-17T05:56:21.654Z,101620
2017-06-17T05:58:50.154Z,101625
2017-06-17T06:01:18.693Z,101627
2017-06-17T06:03:48.165Z,101627
2017-06-17T06:06:16.938Z,101631
2017-06-17T06:08:46.177Z,101641
2017-06-17T06:11:14.658Z,101636
2017-06-17T06:13:43.823Z,101648
2017-06-17T06:16:13.122Z,101651
2017-06-17T06:18:42.473Z,101647
2017-06-17T06:21:11.315Z,101651
2017-06-17T06:23:40.666Z,101653
2017-06-17T06:26:09.204Z,101647
2017-06-17T06:28:37.935Z,101647
2017-06-17T06:31:06.605Z,101652
2017-06-17T06:33:35.286Z,101647
2017-06-17T06:36:03.820Z,101650
2017-06-17T06:38:32.926Z,101641
2017-06-17T06:41:09.182Z,101650
2017-06-17T06:43:37.709Z,101658
2017-06-17T06:46:06.379Z,101666
2017-06-17T06:48:35.093Z,101671
2017-06-17T06:51:04.178Z,101674
2017-06-17T06:53:32.774Z,101673
2017-06-17T06:56:01.332Z,101683
2017-06-17T06:58:30.629Z,101697
2017-06-17T07:00:59.898Z,101682
2017-06-17T07:03:28.377Z,101690
2017-06-17T07:05:57.086Z,101691
2017-06-17T07:08:26.450Z,101690
2017-06-17T07:10:55.070Z,101705
2017-06-17T07:13:24.786Z,101690
2017-06-17T07:15:54.238Z,101693
2017-06-17T07:18:24.123Z,101687
2017-06-17T07:20:53.420Z,101693
2017-06-17T07:23:22.724Z,101697
2017-06-17T07:25:52.127Z,101715
2017-06-17T07:28:21.098Z,101714
2017-06-17T07:30:49.821Z,101706
2017-06-17T07:33:18.329Z,101717
2017-06-17T07:35:47.034Z,101723
2017-06-17T07:38:15.664Z,101733
2017-06-17T07:40:45.528Z,101723
2017-06-17T07:43:14.177Z,101731
2017-06-17T07:45:43.139Z,101736
2017-06-17T07:48:11.795Z,101731
2017-06-17T07:50:40.318Z,101739
2017-06-17T07:53:09.634Z,101727
2017-06-17T07:55:38.916Z,101731
2017-06-17T07:58:08.014Z,101731
2017-06-17T08:00:37.536Z,101724
2017-06-17T08:03:07.570Z,101732
2017-06-17T08:05:36.122Z,101725
2017-06-17T08:08:05.644Z,101726
2017-06-17T08:10:35.110Z,101729
2017-06-17T08:13:03.778Z,101729
2017-06-17T08:15:32.778Z,101736
2017-06-17T08:18:01.511Z,101734
2017-06-17T08:20:30.065Z,101744
2017-06-17T08:22:59.540Z,101741
2017-06-17T08:25:28.797Z,101745
2017-06-17T08:27:58.450Z,101745
2017-06-17T08:30:26.971Z,101746
2017-06-17T08:32:55.690Z,101748
2017-06-17T08:35:25.552Z,101762
2017-06-17T08:37:54.280Z,101756
2017-06-17T08:40:23.598Z,101753
2017-06-17T08:42:52.280Z,101750
2017-06-17T08:45:21.741Z,101751
2017-06-17T08:47:51.050Z,101757
2017-06-17T08:50:20.246Z,101754
2017-06-17T08:52:48.817Z,101758
2017-06-17T08:55:17.556Z,101754
2017-06-17T08:57:46.917Z,101759
2017-06-17T09:00:15.752Z,101766
2017-06-17T09:02:44.137Z,101759
2017-06-17T09:05:12.086Z,101753
2017-06-17T09:07:41.403Z,101765
2017-06-17T09:10:10.960Z,101764
2017-06-17T09:12:39.818Z,101763
2017-06-17T09:15:09.715Z,101749
2017-06-17T09:17:39.203Z,101774
2017-06-17T09:20:08.123Z,101767
2017-06-17T09:22:36.774Z,101779
2017-06-17T09:25:05.653Z,101777
2017-06-17T09:27:34.150Z,101786
2017-06-17T09:30:02.861Z,101774
2017-06-17T09:32:32.585Z,101773
2017-06-17T09:35:02.079Z,101784
2017-06-17T09:37:31.380Z,101785
2017-06-17T09:40:00.645Z,101780
2017-06-17T09:42:29.315Z,101784
2017-06-17T09:44:57.830Z,101780
2017-06-17T09:47:26.515Z,101797
2017-06-17T09:49:55.003Z,101786
2017-06-17T09:52:24.181Z,101793
2017-06-17T09:54:52.972Z,101796
2017-06-17T09:57:21.577Z,101791
2017-06-17T09:59:50.157Z,101790
2017-06-17T10:02:19.681Z,101777
2017-06-17T10:04:48.966Z,101790
2017-06-17T10:07:17.607Z,101785
2017-06-17T10:09:45.528Z,101793
2017-06-17T10:12:15.406Z,101790
2017-06-17T10:14:43.505Z,101800
2017-06-17T10:17:12.213Z,101787
2017-06-17T10:19:41.511Z,101786
2017-06-17T10:22:10.778Z,101790
2017-06-17T10:24:39.358Z,101790
2017-06-17T10:27:07.873Z,101806
2017-06-17T10:29:36.390Z,101804
2017-06-17T10:32:05.152Z,101805
2017-06-17T10:34:35.029Z,101794
2017-06-17T10:37:03.845Z,101805
2017-06-17T10:39:33.138Z,101809
2017-06-17T10:42:01.823Z,101818
2017-06-17T10:44:30.780Z,101827
2017-06-17T10:47:01.864Z,101822
2017-06-17T10:49:29.801Z,101819
2017-06-17T10:51:58.176Z,101823
2017-06-17T10:54:27.875Z,101829
2017-06-17T10:56:55.775Z,101834
2017-06-17T10:59:23.935Z,101829
2017-06-17T11:01:52.775Z,101835
2017-06-17T11:04:22.020Z,101843
2017-06-17T11:06:50.967Z,101835
2017-06-17T11:09:20.440Z,101825
2017-06-17T11:11:48.730Z,101826
2017-06-17T11:14:16.989Z,101835
2017-06-17T11:16:44.893Z,101829
2017-06-17T11:19:13.861Z,101842
2017-06-17T11:21:42.065Z,101840
2017-06-17T11:24:10.749Z,101824
2017-06-17T11:26:39.386Z,101841
2017-06-17T11:29:07.279Z,101825
2017-06-17T11:31:35.355Z,101834
2017-06-17T11:34:09.162Z,101842
2017-06-17T11:36:37.402Z,101830
2017-06-17T11:39:06.044Z,101830
2017-06-17T11:41:34.714Z,101842
2017-06-17T11:44:02.804Z,101841
2017-06-17T11:46:30.774Z,101836
2017-06-17T11:48:59.446Z,101834
2017-06-17T11:51:27.515Z,101837
2017-06-17T11:53:55.811Z,101845
2017-06-17T11:56:24.887Z,101838
2017-06-17T11:58:53.489Z,101847
2017-06-17T12:01:22.491Z,101835
2017-06-17T12:03:51.143Z,101830
2017-06-17T12:06:19.401Z,101838
2017-06-17T12:08:47.690Z,101838
2017-06-17T12:11:15.806Z,101843
2017-06-17T12:13:43.933Z,101840
2017-06-17T12:16:12.088Z,101846
2017-06-17T12:18:40.046Z,101838
2017-06-17T12:21:08.045Z,101842
2017-06-17T12:23:36.570Z,101834
2017-06-17T12:26:05.462Z,101847
2017-06-17T12:28:34.127Z,101851
2017-06-17T12:31:02.789Z,101836
2017-06-17T12:33:30.701Z,101846
2017-06-17T12:35:59.355Z,101849
2017-06-17T12:38:27.284Z,101853
2017-06-17T12:40:55.681Z,101851
2017-06-17T12:43:23.814Z,101849
2017-06-17T12:45:54.346Z,101861
2017-06-17T12:48:31.956Z,101859
2017-06-17T12:51:00.113Z,101863
2017-06-17T12:53:28.797Z,101855
2017-06-17T12:55:57.694Z,101851
2017-06-17T12:58:26.807Z,101862
2017-06-17T13:00:54.718Z,101873
2017-06-17T13:03:22.682Z,101876
2017-06-17T13:05:51.355Z,101873
2017-06-17T13:10:56.766Z,101864
2017-06-17T13:13:25.641Z,101883
2017-06-17T13:15:55.223Z,101874
2017-06-17T13:18:23.655Z,101874
2017-06-17T13:20:52.906Z,101864
2017-06-17T13:23:21.398Z,101882
2017-06-17T13:25:50.109Z,101879
2017-06-17T13:28:18.770Z,101879
2017-06-17T13:30:47.497Z,101885
2017-06-17T13:33:16.792Z,101890
2017-06-17T13:35:46.045Z,101888
2017-06-17T13:38:14.785Z,101874
2017-06-17T13:40:44.292Z,101886
2017-06-17T13:43:14.150Z,101880
2017-06-17T13:45:42.881Z,101893
2017-06-17T13:48:12.346Z,101893
2017-06-17T13:50:41.090Z,101888
2017-06-17T13:53:10.599Z,101887
2017-06-17T13:55:40.031Z,101896
2017-06-17T13:58:08.769Z,101887
2017-06-17T14:00:38.690Z,101885
2017-06-17T14:03:07.774Z,101889
2017-06-17T14:05:36.327Z,101888
2017-06-17T14:08:06.164Z,101891
2017-06-17T14:10:34.719Z,101890
2017-06-17T14:13:03.640Z,101887
2017-06-17T14:15:32.449Z,101888
2017-06-17T14:18:01.766Z,101878
2017-06-17T14:20:31.688Z,101898
2017-06-17T14:23:00.525Z,101895
2017-06-17T14:25:29.547Z,101903
2017-06-17T14:27:58.153Z,101902
2017-06-17T14:30:27.681Z,101898
2017-06-17T14:32:56.386Z,101902
2017-06-17T14:35:25.196Z,101903
2017-06-17T14:37:54.186Z,101904
2017-06-17T14:40:22.929Z,101908
2017-06-17T14:42:51.638Z,101906
2017-06-17T14:45:20.396Z,101917
2017-06-17T14:47:49.824Z,101911
2017-06-17T14:50:18.835Z,101903
2017-06-17T14:52:47.437Z,101905
2017-06-17T14:55:16.063Z,101912
2017-06-17T14:57:49.964Z,101915
2017-06-17T15:00:23.639Z,101902
2017-06-17T15:02:52.524Z,101909
2017-06-17T15:05:21.417Z,101912
2017-06-17T15:07:50.851Z,101923
2017-06-17T15:10:20.372Z,101916
2017-06-17T15:12:50.519Z,101916
2017-06-17T15:15:19.596Z,101908
2017-06-17T15:17:51.348Z,101903
2017-06-17T15:20:21.737Z,101913
2017-06-17T15:22:50.602Z,101920
2017-06-17T15:25:19.562Z,101910
2017-06-17T15:27:49.453Z,101913
2017-06-17T15:30:18.149Z,101899
2017-06-17T15:32:46.727Z,101906
2017-06-17T15:35:15.582Z,101908
2017-06-17T15:37:44.412Z,101904
2017-06-17T15:40:13.693Z,101903
2017-06-17T15:42:42.426Z,101906
2017-06-17T15:45:11.054Z,101901
2017-06-17T15:47:39.771Z,101909
2017-06-17T15:50:08.648Z,101907
2017-06-17T15:52:37.241Z,101897
2017-06-17T15:55:07.041Z,101892
2017-06-17T15:57:35.767Z,101900
2017-06-17T16:00:05.127Z,101903
2017-06-17T16:02:34.605Z,101901
2017-06-17T16:05:03.223Z,101898
2017-06-17T16:07:31.738Z,101902
2017-06-17T16:10:01.177Z,101912
2017-06-17T16:12:30.709Z,101904
2017-06-17T16:14:59.445Z,101900
2017-06-17T16:17:28.898Z,101891
2017-06-17T16:19:57.425Z,101895
2017-06-17T16:22:25.962Z,101898
2017-06-17T16:24:54.485Z,101894
2017-06-17T16:27:24.219Z,101898
2017-06-17T16:29:52.798Z,101905
2017-06-17T16:32:22.094Z,101901
2017-06-17T16:34:51.578Z,101918
2017-06-17T16:37:20.090Z,101908
2017-06-17T16:39:48.653Z,101906
2017-06-17T16:42:17.146Z,101897
2017-06-17T16:44:46.678Z,101901
2017-06-17T16:47:15.191Z,101906
2017-06-17T16:49:43.706Z,101892
2017-06-17T16:52:12.229Z,101897
2017-06-17T16:54:41.201Z,101904
2017-06-17T16:57:11.089Z,101901
2017-06-17T16:59:39.665Z,101911
2017-06-17T17:02:08.170Z,101909
2017-06-17T17:04:36.742Z,101898
2017-06-17T17:07:05.300Z,101903
2017-06-17T17:09:34.551Z,101905
2017-06-17T17:12:04.038Z,101901
2017-06-17T17:14:32.730Z,101897
2017-06-17T17:17:01.314Z,101909
2017-06-17T17:19:29.783Z,101903
2017-06-17T17:21:58.326Z,101907
2017-06-17T17:24:27.426Z,101903
2017-06-17T17:26:55.986Z,101898
2017-06-17T17:29:24.621Z,101911
2017-06-17T17:31:53.166Z,101896
2017-06-17T17:34:22.298Z,101902
2017-06-17T17:36:50.873Z,101898
2017-06-17T17:39:19.409Z,101898
2017-06-17T17:41:48.893Z,101900
2017-06-17T17:44:18.014Z,101904
2017-06-17T17:46:47.402Z,101894
2017-06-17T17:49:15.977Z,101896
2017-06-17T17:51:45.262Z,101891
2017-06-17T17:54:14.355Z,101892
2017-06-17T17:56:42.830Z,101899
2017-06-17T17:59:11.466Z,101893
2017-06-17T18:01:40.818Z,101901
2017-06-17T18:04:10.078Z,101895
2017-06-17T18:06:38.739Z,101895
2017-06-17T18:09:07.261Z,101902
2017-06-17T18:11:36.279Z,101902
2017-06-17T18:14:05.022Z,101898
2017-06-17T18:16:34.252Z,101910
2017-06-17T18:19:03.070Z,101912
2017-06-17T18:21:31.702Z,101913
2017-06-17T18:24:00.851Z,101913
2017-06-17T18:26:29.339Z,101918
2017-06-17T18:28:58.069Z,101923
2017-06-17T18:31:27.523Z,101920
2017-06-17T18:33:56.021Z,101922
2017-06-17T18:36:26.125Z,101915
2017-06-17T18:38:54.816Z,101929
2017-06-17T18:41:23.701Z,101923
2017-06-17T18:43:52.294Z,101927
2017-06-17T18:46:21.180Z,101922
2017-06-17T18:48:50.384Z,101917
2017-06-17T18:51:18.866Z,101921
2017-06-17T18:53:47.397Z,101921
2017-06-17T18:56:17.310Z,101925
2017-06-17T18:58:46.782Z,101917
2017-06-17T19:01:15.709Z,101926
2017-06-17T19:03:45.227Z,101923
2017-06-17T19:06:13.881Z,101921
2017-06-17T19:08:42.568Z,101923
2017-06-17T19:11:11.276Z,101930
2017-06-17T19:13:40.565Z,101928
2017-06-17T19:16:09.972Z,101931
2017-06-17T19:18:39.180Z,101930
2017-06-17T19:21:08.687Z,101930
2017-06-17T19:23:38.194Z,101927
2017-06-17T19:26:07.966Z,101926
2017-06-17T19:28:37.648Z,101929
2017-06-17T19:31:06.717Z,101927
2017-06-17T19:33:35.999Z,101947
2017-06-17T19:36:05.250Z,101934
2017-06-17T19:38:34.053Z,101936
2017-06-17T19:41:02.791Z,101935
2017-06-17T19:43:31.354Z,101943
2017-06-17T19:45:59.894Z,101949
2017-06-17T19:48:28.461Z,101930
2017-06-17T19:50:57.212Z,101846
2017-06-17T19:53:25.816Z,101934
2017-06-17T19:55:54.331Z,101919
2017-06-17T19:58:23.293Z,101930
2017-06-17T20:00:52.748Z,101930
2017-06-17T20:03:21.465Z,101935
2017-06-17T20:05:49.986Z,101939
2017-06-17T20:08:18.551Z,101930
2017-06-17T20:10:47.344Z,101939
2017-06-17T20:13:16.629Z,101933
2017-06-17T20:15:46.109Z,101942
2017-06-17T20:18:15.244Z,101951
2017-06-17T20:20:49.217Z,101950
2017-06-17T20:23:19.054Z,101958
2017-06-17T20:25:47.609Z,101955
2017-06-17T20:28:16.550Z,101957
2017-06-17T20:30:46.005Z,101953
2017-06-17T20:33:14.530Z,101962
2017-06-17T20:35:43.166Z,101964
2017-06-17T20:38:12.197Z,101964
2017-06-17T20:40:40.761Z,101962
2017-06-17T20:43:09.500Z,101974
2017-06-17T20:45:38.275Z,101975
2017-06-17T20:48:06.928Z,101975
2017-06-17T21:03:51.332Z,101987
2017-06-17T21:06:19.918Z,101991
2017-06-17T21:08:48.691Z,101925
2017-06-17T21:11:18.819Z,101990
2017-06-17T21:13:48.369Z,101997
2017-06-17T21:16:16.946Z,102002
2017-06-17T21:18:46.341Z,101994
2017-06-17T21:21:15.192Z,102006
2017-06-17T21:23:44.938Z,102002
2017-06-17T21:26:13.464Z,101997
2017-06-17T21:28:42.058Z,102002
2017-06-17T21:31:10.675Z,101997
2017-06-17T21:33:39.200Z,102000
2017-06-17T21:36:07.888Z,102010
2017-06-17T21:38:36.434Z,102020
2017-06-17T21:41:05.110Z,102029
2017-06-17T21:43:33.805Z,102028
2017-06-17T21:46:02.355Z,102012
2017-06-17T21:48:31.419Z,102032
2017-06-17T21:50:59.924Z,102034
2017-06-17T21:53:40.850Z,102035
2017-06-17T21:56:09.393Z,102035
2017-06-17T21:58:38.209Z,102029
2017-06-17T22:01:06.745Z,102029
2017-06-17T22:03:35.278Z,102013
2017-06-17T22:06:08.450Z,102035
2017-06-17T22:08:37.182Z,102035
2017-06-17T22:11:05.843Z,102025
2017-06-17T22:13:34.396Z,102033
2017-06-17T22:16:02.914Z,102024
2017-06-17T22:18:31.446Z,102023
2017-06-17T22:20:59.972Z,102021
2017-06-17T22:23:28.818Z,102028
2017-06-17T22:25:57.553Z,102034
2017-06-17T22:28:26.053Z,102015
2017-06-17T22:50:02.495Z,102026
2017-06-17T22:52:31.103Z,102022
2017-06-17T22:54:59.649Z,102028
2017-06-17T22:57:28.169Z,102029
2017-06-17T22:59:56.954Z,102030
2017-06-17T23:02:25.842Z,102031
2017-06-17T23:04:54.314Z,102034
2017-06-17T23:07:23.010Z,102028
2017-06-17T23:09:51.509Z,102031
2017-06-17T23:12:21.218Z,102019
2017-06-17T23:14:50.502Z,102022
2017-06-17T23:17:19.017Z,102034
2017-06-17T23:19:48.367Z,102026
2017-06-17T23:22:16.854Z,102025
2017-06-17T23:24:45.433Z,102024
2017-06-17T23:27:14.150Z,102034
2017-06-17T23:29:42.643Z,102038
2017-06-17T23:32:11.955Z,102026
2017-06-17T23:34:41.209Z,102032
2017-06-17T23:37:09.975Z,102031
2017-06-17T23:39:38.482Z,102033
2017-06-17T23:42:06.981Z,102038
2017-06-17T23:44:35.543Z,102025
2017-06-17T23:47:04.060Z,102031
2017-06-17T23:49:32.768Z,102025
2017-06-17T23:52:02.022Z,102041
2017-06-17T23:54:30.493Z,102037
2017-06-17T23:56:58.984Z,102026
2017-06-17T23:59:27.922Z,102025
